Shelter Island Heights, NY (11965)

7:31 AM EST on November 21, 2014 (GMT -0500)
KNYSHELT2 | Change Station
CLOSE
Current Station
Personal Weather Station
Location: Shelter Island Heights, NY
Elevation: 73 ft
Nearby Weather Stations

Elev 73 ft 41.07 °N, 72.36 °W | Updated 41 seconds ago

Clear
Clear
30.3 °F
Feels Like 23 °F
N
7.0
Wind Variable Wind from NNW

Today
High -- | Low -- °F
--% Chance of Precip.
Yesterday
High -- | Low -- °F
Precip. -- in
6:44 AM 4:26 PM
Waning Crescent, 1% visible
Pressure 30.16 in
Visibility 10.0 miles
Clouds Clear
Windchill 23 °F
Dew Point 13 °F
Humidity 49%
Rainfall 0.00 in
Snow Depth Not available.
UV 0 out of 12
Pollen .10 out of 12
Air Quality Not available.
Flu Activity Not available.
METAR KFOK 211153Z 28007KT 10SM CLR M03/M13 A3016 RMK AO2 SLP212 T10281128 10000 21028 53033 TSNO

More Conditions Fewer Conditions

Pressure 30.16 in
Visibility 10.0 miles
Clouds Clear
Windchill 23 °F
Dew Point 13 °F
Humidity 49%
Rainfall 0.00 in
Snow Depth Not available.
UV 0 out of 12
Pollen .10 out of 12
Air Quality Not available.
Flu Activity Not available.
METAR KFOK 211153Z 28007KT 10SM CLR M03/M13 A3016 RMK AO2 SLP212 T10281128 10000 21028 53033 TSNO

More Conditions Fewer Conditions

10-Day Weather Forecast

Almanac

Astronomy

Nov. 21, 2014 Rise Set
Actual Time
Civil Twilight
Nautical Twilight
Astronomical Twilight
Moon
Length of Visible Light
Length of Day
Tomorrow will be .
, % of the Moon is Illuminated

Today's Extremes

State Highs State Lows

Community

WunderPhotos

Upload Photos

1,772,654 photos uploaded!

WunderBlogs® & News

Nearby

Air Quality

  Air Quality AQ Index Pollutant
Not available.

Snow Depth

Station Depth Elevation

Earthquake Activity

City Distance Mag. Time & Date
Minimum magnitude displayed is 2.5.

Coastal Water Temperatures

Place Temperature

Nearby Weather Stations